createdAt,value
2019-05-07T00:00:55.406Z,6.34
2019-05-07T00:03:26.523Z,6.34
2019-05-07T00:05:57.624Z,6.37
2019-05-07T00:08:28.759Z,6.40
2019-05-07T00:11:02.322Z,6.45
2019-05-07T00:13:33.635Z,6.49
2019-05-07T00:16:05.737Z,6.55
2019-05-07T00:18:36.761Z,6.60
2019-05-07T00:21:07.839Z,6.66
2019-05-07T00:23:38.974Z,6.74
2019-05-07T00:26:10.066Z,6.81
2019-05-07T00:28:43.247Z,6.88
2019-05-07T00:31:14.800Z,6.95
2019-05-07T00:33:45.875Z,7.02
2019-05-07T00:36:23.170Z,7.07
2019-05-07T00:39:07.964Z,7.13
2019-05-07T00:41:43.691Z,7.16
2019-05-07T00:44:16.328Z,7.19
2019-05-07T00:46:49.000Z,7.21
2019-05-07T00:49:22.150Z,7.22
2019-05-07T00:51:53.332Z,7.24
2019-05-07T00:54:26.333Z,7.27
2019-05-07T00:56:57.466Z,7.29
2019-05-07T00:59:28.581Z,7.29
2019-05-07T01:02:01.740Z,7.31
2019-05-07T01:04:33.155Z,7.34
2019-05-07T01:07:04.634Z,7.33
2019-05-07T01:09:35.648Z,7.34
2019-05-07T01:12:06.900Z,7.35
2019-05-07T01:14:38.123Z,7.33
2019-05-07T01:17:09.216Z,7.30
2019-05-07T01:19:42.271Z,7.27
2019-05-07T01:22:13.192Z,7.24
2019-05-07T01:24:44.470Z,7.20
2019-05-07T01:27:15.542Z,7.17
2019-05-07T01:29:46.584Z,7.12
2019-05-07T01:32:22.994Z,7.07
2019-05-07T01:34:55.720Z,7.03
2019-05-07T01:37:28.332Z,6.97
2019-05-07T01:39:59.380Z,6.91
2019-05-07T01:42:32.573Z,6.83
2019-05-07T01:45:03.262Z,6.78
2019-05-07T01:47:39.812Z,6.72
2019-05-07T01:50:13.214Z,6.63
2019-05-07T01:52:43.747Z,6.56
2019-05-07T01:55:14.769Z,6.50
2019-05-07T01:57:45.974Z,6.42
2019-05-07T02:00:17.235Z,6.35
2019-05-07T02:02:52.028Z,6.30
2019-05-07T02:05:42.436Z,6.20
2019-05-07T02:08:24.436Z,6.14
2019-05-07T02:10:57.062Z,6.03
2019-05-07T02:13:28.127Z,5.95
2019-05-07T02:16:01.899Z,5.84
2019-05-07T02:18:32.934Z,5.82
2019-05-07T02:21:05.304Z,5.74
2019-05-07T02:23:37.844Z,5.69
2019-05-07T02:26:13.315Z,5.64
2019-05-07T02:28:46.192Z,5.56
2019-05-07T02:31:22.956Z,5.54
2019-05-07T02:33:54.144Z,5.50
2019-05-07T02:36:27.028Z,5.48
2019-05-07T02:39:15.836Z,5.43
2019-05-07T02:41:46.879Z,5.40
2019-05-07T02:44:18.041Z,5.35
2019-05-07T02:46:59.458Z,5.31
2019-05-07T02:49:32.810Z,5.31
2019-05-07T02:52:25.366Z,5.29
2019-05-07T02:55:03.897Z,5.29
2019-05-07T02:57:34.300Z,5.29
2019-05-07T03:00:08.505Z,5.31
2019-05-07T03:02:39.513Z,5.31
2019-05-07T03:05:13.780Z,5.34
2019-05-07T03:07:45.805Z,5.38
2019-05-07T03:10:16.938Z,5.38
2019-05-07T03:12:48.274Z,5.44
2019-05-07T03:15:19.476Z,5.44
2019-05-07T03:17:53.559Z,5.52
2019-05-07T03:20:33.382Z,5.57
2019-05-07T03:23:07.306Z,5.72
2019-05-07T03:25:54.139Z,5.72
2019-05-07T03:28:26.366Z,5.84
2019-05-07T03:31:05.928Z,5.99
2019-05-07T03:33:39.272Z,6.10
2019-05-07T03:36:16.861Z,6.27
2019-05-07T03:38:47.485Z,6.49
2019-05-07T03:41:22.738Z,6.70
2019-05-07T03:43:53.875Z,6.90
2019-05-07T03:46:26.497Z,7.15
2019-05-07T03:48:58.396Z,7.45
2019-05-07T03:51:32.778Z,7.79
2019-05-07T03:54:18.953Z,8.23
2019-05-07T03:56:37.224Z,8.69
2019-05-07T03:59:08.273Z,9.21
2019-05-07T04:01:43.072Z,9.70
2019-05-07T04:04:13.654Z,10.18
2019-05-07T04:06:46.362Z,10.68
2019-05-07T04:09:17.394Z,11.19
2019-05-07T04:11:48.458Z,11.66
2019-05-07T04:14:19.555Z,12.20
2019-05-07T04:16:53.571Z,12.65
2019-05-07T04:19:25.011Z,13.05
2019-05-07T04:21:57.167Z,13.51
2019-05-07T04:24:33.013Z,13.89
2019-05-07T04:27:07.483Z,14.31
2019-05-07T04:29:38.988Z,14.71
2019-05-07T04:32:14.129Z,14.98
2019-05-07T04:34:58.504Z,15.38
2019-05-07T04:37:29.690Z,15.78
2019-05-07T04:40:03.192Z,16.12
2019-05-07T04:42:34.568Z,16.46
2019-05-07T04:45:07.815Z,16.75
2019-05-07T04:47:44.255Z,17.05
2019-05-07T04:50:14.139Z,17.33
2019-05-07T04:52:46.195Z,17.40
2019-05-07T04:55:18.760Z,17.57
2019-05-07T04:57:53.072Z,17.71
2019-05-07T05:00:23.184Z,17.82
2019-05-07T05:02:56.614Z,18.11
2019-05-07T05:05:27.647Z,18.28
2019-05-07T05:07:59.601Z,18.41
2019-05-07T05:10:33.455Z,18.34
2019-05-07T05:13:03.495Z,18.50
2019-05-07T05:15:35.984Z,18.69
2019-05-07T05:18:07.164Z,18.71
2019-05-07T05:20:42.295Z,18.85
2019-05-07T05:23:18.344Z,18.81
2019-05-07T05:25:52.265Z,18.92
2019-05-07T05:28:24.006Z,18.86
2019-05-07T05:31:05.812Z,18.92
2019-05-07T05:33:35.623Z,18.22
2019-05-07T05:36:08.459Z,17.82
2019-05-07T05:38:42.336Z,17.73
2019-05-07T05:41:13.339Z,17.79
2019-05-07T05:44:02.455Z,18.17
2019-05-07T05:46:34.430Z,17.53
2019-05-07T05:49:05.530Z,17.67
2019-05-07T05:51:42.998Z,17.86
2019-05-07T05:54:32.821Z,18.08
2019-05-07T05:57:23.005Z,17.84
2019-05-07T05:59:55.918Z,17.47
2019-05-07T06:02:32.354Z,17.36
2019-05-07T06:05:06.704Z,17.54
2019-05-07T06:07:39.337Z,17.60
2019-05-07T06:10:29.495Z,17.63
2019-05-07T06:13:12.365Z,18.02
2019-05-07T06:16:00.314Z,17.99
2019-05-07T06:18:45.123Z,18.05
2019-05-07T06:21:20.475Z,18.05
2019-05-07T06:23:54.690Z,18.20
2019-05-07T06:26:27.366Z,18.06
2019-05-07T06:28:58.421Z,17.92
2019-05-07T06:31:29.577Z,18.14
2019-05-07T06:34:01.843Z,18.06
2019-05-07T06:36:34.670Z,18.10
2019-05-07T06:39:12.483Z,18.11
2019-05-07T06:42:02.057Z,18.08
2019-05-07T06:44:33.447Z,17.99
2019-05-07T06:47:04.532Z,18.03
2019-05-07T06:49:35.570Z,18.20
2019-05-07T06:52:07.613Z,18.10
2019-05-07T06:54:42.834Z,18.31
2019-05-07T06:57:14.571Z,18.07
2019-05-07T06:59:47.286Z,17.92
2019-05-07T07:02:22.991Z,17.68
2019-05-07T07:05:02.872Z,17.71
2019-05-07T07:07:42.220Z,17.81
2019-05-07T07:10:14.857Z,17.67
2019-05-07T07:12:49.005Z,17.60
2019-05-07T07:15:20.079Z,17.38
2019-05-07T07:17:52.410Z,17.44
2019-05-07T07:20:25.524Z,17.35
2019-05-07T07:22:57.135Z,17.26
2019-05-07T07:25:32.408Z,16.83
2019-05-07T07:28:03.116Z,16.74
2019-05-07T07:30:39.229Z,16.46
2019-05-07T07:33:12.221Z,16.16
2019-05-07T07:35:43.566Z,16.14
2019-05-07T07:38:33.208Z,16.11
2019-05-07T07:41:17.381Z,16.23
2019-05-07T07:43:48.797Z,16.36
2019-05-07T07:46:22.153Z,16.51
2019-05-07T07:49:06.891Z,16.50
2019-05-07T07:51:40.466Z,16.09
2019-05-07T07:54:02.442Z,15.76
2019-05-07T07:56:49.094Z,15.52
2019-05-07T07:59:32.840Z,15.17
2019-05-07T08:02:18.045Z,14.95
2019-05-07T08:04:52.639Z,14.70
2019-05-07T08:07:22.966Z,14.10
2019-05-07T08:09:59.452Z,13.41
2019-05-07T08:12:32.590Z,13.25
2019-05-07T08:15:17.364Z,13.25
2019-05-07T08:17:41.789Z,13.43
2019-05-07T08:20:13.318Z,13.92
2019-05-07T08:22:44.380Z,14.14
2019-05-07T08:25:15.543Z,14.36
2019-05-07T08:27:46.565Z,14.56
2019-05-07T08:30:22.236Z,14.50
2019-05-07T08:32:55.036Z,14.50
2019-05-07T08:35:32.565Z,14.49
2019-05-07T08:38:03.384Z,14.33
2019-05-07T08:40:34.512Z,14.50
2019-05-07T08:43:06.282Z,14.79
2019-05-07T08:45:52.417Z,15.01
2019-05-07T08:48:28.032Z,15.15
2019-05-07T08:50:59.136Z,15.35
2019-05-07T08:53:30.212Z,15.47
2019-05-07T08:56:03.303Z,15.57
2019-05-07T08:58:34.548Z,15.83
2019-05-07T09:01:06.697Z,15.91
2019-05-07T09:03:43.638Z,16.01
2019-05-07T09:06:15.174Z,16.14
2019-05-07T09:08:46.192Z,16.13
2019-05-07T09:11:20.300Z,15.97
2019-05-07T09:13:52.557Z,15.97
2019-05-07T09:16:24.559Z,15.81
2019-05-07T09:18:57.273Z,15.70
2019-05-07T09:21:28.468Z,15.72
2019-05-07T09:23:59.627Z,15.64
2019-05-07T09:26:32.450Z,15.56
2019-05-07T09:29:11.867Z,15.25
2019-05-07T09:31:52.564Z,15.08
2019-05-07T09:34:25.397Z,14.80
2019-05-07T09:37:02.380Z,14.62
2019-05-07T09:39:33.716Z,14.67
2019-05-07T09:42:04.882Z,14.84
2019-05-07T09:44:37.429Z,14.95
2019-05-07T09:47:12.916Z,15.07
2019-05-07T09:49:45.711Z,15.07
2019-05-07T09:52:17.667Z,15.00
2019-05-07T09:54:48.754Z,15.07
2019-05-07T09:57:29.382Z,15.24
2019-05-07T09:59:53.704Z,15.31
2019-05-07T10:02:24.859Z,15.35
2019-05-07T10:04:55.945Z,15.27
2019-05-07T10:07:27.016Z,15.16
2019-05-07T10:09:58.164Z,15.02
2019-05-07T10:12:37.080Z,14.89
2019-05-07T10:15:12.074Z,14.67
2019-05-07T10:17:54.380Z,14.73
2019-05-07T10:20:25.866Z,14.82
2019-05-07T10:23:02.278Z,14.83
2019-05-07T10:25:38.816Z,14.92
2019-05-07T10:28:10.020Z,15.04
2019-05-07T10:30:42.793Z,14.85
2019-05-07T10:33:14.784Z,14.53
2019-05-07T10:35:47.465Z,14.12
2019-05-07T10:38:19.343Z,13.92
2019-05-07T10:40:50.522Z,13.71
2019-05-07T10:43:22.331Z,13.68
2019-05-07T10:46:13.056Z,13.79
2019-05-07T10:48:49.490Z,14.02
2019-05-07T10:51:21.809Z,14.09
2019-05-07T10:53:53.070Z,14.21
2019-05-07T10:56:24.133Z,14.35
2019-05-07T10:58:55.244Z,14.39
2019-05-07T11:01:32.766Z,14.37
2019-05-07T11:04:04.538Z,14.23
2019-05-07T11:06:37.100Z,14.08
2019-05-07T11:09:10.628Z,14.09
2019-05-07T11:11:42.327Z,14.11
2019-05-07T11:14:16.500Z,14.04
2019-05-07T11:16:55.019Z,14.12
2019-05-07T11:19:27.466Z,14.16
2019-05-07T11:22:00.170Z,14.15
2019-05-07T11:24:32.073Z,14.17
2019-05-07T11:27:03.278Z,14.24
2019-05-07T11:29:36.557Z,14.35
2019-05-07T11:32:08.522Z,14.39
2019-05-07T11:34:42.268Z,14.43
2019-05-07T11:37:14.770Z,14.29
2019-05-07T11:39:47.348Z,14.15
2019-05-07T11:42:22.996Z,14.00
2019-05-07T11:44:54.981Z,14.05
2019-05-07T11:47:27.782Z,14.12
2019-05-07T11:50:16.522Z,14.05
2019-05-07T11:53:05.582Z,13.97
2019-05-07T11:55:36.662Z,13.96
2019-05-07T11:58:07.789Z,14.18
2019-05-07T12:00:43.956Z,14.30
2019-05-07T12:03:15.524Z,14.29
2019-05-07T12:05:46.616Z,14.32
2019-05-07T12:08:17.658Z,14.40
2019-05-07T12:10:48.761Z,14.50
2019-05-07T12:13:21.738Z,14.66
2019-05-07T12:15:52.608Z,14.75
2019-05-07T12:18:23.672Z,14.62
2019-05-07T12:20:56.591Z,14.57
2019-05-07T12:23:29.144Z,14.49
2019-05-07T12:26:02.166Z,14.57
2019-05-07T12:28:33.060Z,14.62
2019-05-07T12:31:08.821Z,14.52
2019-05-07T12:33:44.305Z,14.49
2019-05-07T12:36:16.926Z,14.46
2019-05-07T12:38:48.022Z,14.31
2019-05-07T12:41:33.748Z,14.37
2019-05-07T12:44:06.934Z,14.43
2019-05-07T12:46:38.210Z,14.35
2019-05-07T12:49:13.110Z,14.38
2019-05-07T12:51:58.334Z,14.34
2019-05-07T12:54:33.641Z,14.32
2019-05-07T12:57:05.382Z,14.35
2019-05-07T12:59:37.396Z,14.40
2019-05-07T13:02:26.977Z,14.37
2019-05-07T13:04:52.020Z,14.45
2019-05-07T13:07:23.464Z,14.53
2019-05-07T13:09:54.908Z,14.50
2019-05-07T13:12:25.981Z,14.56
2019-05-07T13:14:58.122Z,14.64
2019-05-07T13:17:33.808Z,14.67
2019-05-07T13:20:07.433Z,14.76
2019-05-07T13:22:43.925Z,14.91
2019-05-07T13:25:15.288Z,14.89
2019-05-07T13:27:46.348Z,14.91
2019-05-07T13:30:19.520Z,14.91
2019-05-07T13:32:52.635Z,14.91
2019-05-07T13:35:24.752Z,14.87
2019-05-07T13:38:01.318Z,14.89
2019-05-07T13:40:38.290Z,14.92
2019-05-07T13:43:11.876Z,14.81
2019-05-07T13:45:56.684Z,14.66
2019-05-07T13:48:28.262Z,14.57
2019-05-07T13:51:01.669Z,14.55
2019-05-07T13:53:35.026Z,14.59
2019-05-07T13:56:06.534Z,14.62
2019-05-07T13:58:49.864Z,14.63
2019-05-07T14:01:32.781Z,14.66
2019-05-07T14:04:14.192Z,14.55
2019-05-07T14:06:58.607Z,14.49
2019-05-07T14:09:27.230Z,14.37
2019-05-07T14:12:04.964Z,14.36
2019-05-07T14:14:36.782Z,14.28
2019-05-07T14:17:34.654Z,14.36
2019-05-07T14:19:43.954Z,14.38
2019-05-07T14:22:19.445Z,14.48
2019-05-07T14:25:01.425Z,14.58
2019-05-07T14:27:26.460Z,14.42
2019-05-07T14:30:02.682Z,14.37
2019-05-07T14:32:38.680Z,14.19
2019-05-07T14:35:19.024Z,14.11
2019-05-07T14:37:56.876Z,14.13
2019-05-07T14:40:32.360Z,14.17
2019-05-07T14:43:09.192Z,14.09
2019-05-07T14:45:45.643Z,14.05
2019-05-07T14:48:30.022Z,13.96
2019-05-07T14:51:02.464Z,13.85
2019-05-07T14:53:35.290Z,13.72
2019-05-07T14:56:14.271Z,13.71
2019-05-07T14:58:45.628Z,13.61
2019-05-07T15:01:22.283Z,13.63
2019-05-07T15:03:54.505Z,13.65
2019-05-07T15:06:26.032Z,13.71
2019-05-07T15:08:58.624Z,13.76
2019-05-07T15:11:31.801Z,13.70
2019-05-07T15:14:05.910Z,13.74
2019-05-07T15:16:39.295Z,13.69
2019-05-07T15:19:16.040Z,13.57
2019-05-07T15:21:51.793Z,13.50
2019-05-07T15:24:22.913Z,13.53
2019-05-07T15:26:58.142Z,13.50
2019-05-07T15:29:31.898Z,13.43
2019-05-07T15:32:06.340Z,13.38
2019-05-07T15:34:37.658Z,13.40
2019-05-07T15:37:12.121Z,13.33
2019-05-07T15:39:42.239Z,13.22
2019-05-07T15:42:14.586Z,13.14
2019-05-07T15:44:52.785Z,13.22
2019-05-07T15:47:28.781Z,13.18
2019-05-07T15:50:01.464Z,13.13
2019-05-07T15:52:58.108Z,13.08
2019-05-07T15:55:23.376Z,13.00
2019-05-07T15:57:56.098Z,12.98
2019-05-07T16:00:33.595Z,12.97
2019-05-07T16:03:08.151Z,12.92
2019-05-07T16:05:39.202Z,12.86
2019-05-07T16:08:12.442Z,12.88
2019-05-07T16:10:43.565Z,12.92
2019-05-07T16:13:17.127Z,12.88
2019-05-07T16:15:49.762Z,12.84
2019-05-07T16:18:28.560Z,12.81
2019-05-07T16:20:59.584Z,12.75
2019-05-07T16:23:32.584Z,12.78
2019-05-07T16:26:05.277Z,12.73
2019-05-07T16:28:37.096Z,12.65
2019-05-07T16:31:09.664Z,12.63
2019-05-07T16:33:42.934Z,12.56
2019-05-07T16:36:13.508Z,12.55
2019-05-07T16:38:47.636Z,12.52
2019-05-07T16:41:18.779Z,12.54
2019-05-07T16:43:52.973Z,12.53
2019-05-07T16:46:22.628Z,12.45
2019-05-07T16:48:55.009Z,12.46
2019-05-07T16:51:32.861Z,12.45
2019-05-07T16:54:03.516Z,12.37
2019-05-07T16:56:36.531Z,12.35
2019-05-07T16:59:12.385Z,12.32
2019-05-07T17:01:46.416Z,12.31
2019-05-07T17:04:19.936Z,12.30
2019-05-07T17:06:51.893Z,12.24
2019-05-07T17:09:35.245Z,12.19
2019-05-07T17:12:09.105Z,12.13
2019-05-07T17:14:42.577Z,12.12
2019-05-07T17:17:18.684Z,12.06
2019-05-07T17:19:53.954Z,11.98
2019-05-07T17:22:27.171Z,11.92
2019-05-07T17:25:52.720Z,11.86
2019-05-07T17:28:31.885Z,11.76
2019-05-07T17:31:08.043Z,11.72
2019-05-07T17:33:47.608Z,11.67
2019-05-07T17:36:22.454Z,11.63
2019-05-07T17:38:55.186Z,11.57
2019-05-07T17:41:27.381Z,11.50
2019-05-07T17:43:59.549Z,11.48
2019-05-07T17:46:32.417Z,11.46
2019-05-07T17:49:09.089Z,11.45
2019-05-07T17:51:42.377Z,11.41
2019-05-07T17:54:14.264Z,11.39
2019-05-07T17:56:47.719Z,11.38
2019-05-07T17:59:18.841Z,11.32
2019-05-07T18:02:02.401Z,11.26
2019-05-07T18:04:47.643Z,11.21
2019-05-07T18:07:08.639Z,11.13
2019-05-07T18:09:42.249Z,11.04
2019-05-07T18:12:13.004Z,10.99
2019-05-07T18:14:44.248Z,10.90
2019-05-07T18:17:18.644Z,10.77
2019-05-07T18:19:50.053Z,10.67
2019-05-07T18:22:22.147Z,10.60
2019-05-07T18:24:53.615Z,10.57
2019-05-07T18:27:26.314Z,10.53
2019-05-07T18:29:59.061Z,10.49
2019-05-07T18:32:32.779Z,10.43
2019-05-07T18:35:05.254Z,10.38
2019-05-07T18:37:41.788Z,10.30
2019-05-07T18:40:15.814Z,10.25
2019-05-07T18:42:46.289Z,10.18
2019-05-07T18:45:17.610Z,10.11
2019-05-07T18:47:48.783Z,10.05
2019-05-07T18:50:22.601Z,9.97
2019-05-07T18:52:53.881Z,9.89
2019-05-07T18:55:25.168Z,9.81
2019-05-07T18:57:58.007Z,9.73
2019-05-07T19:00:38.507Z,9.66
2019-05-07T19:03:10.733Z,9.58
2019-05-07T19:05:42.485Z,9.48
2019-05-07T19:08:13.661Z,9.40
2019-05-07T19:10:44.803Z,9.31
2019-05-07T19:13:17.692Z,9.23
2019-05-07T19:15:48.820Z,9.15
2019-05-07T19:18:22.762Z,9.06
2019-05-07T19:20:54.211Z,8.96
2019-05-07T19:23:28.601Z,8.87
2019-05-07T19:25:59.800Z,8.79
2019-05-07T19:28:32.900Z,8.70
2019-05-07T19:31:05.583Z,8.61
2019-05-07T19:33:38.514Z,8.53
2019-05-07T19:36:16.906Z,8.45
2019-05-07T19:38:47.740Z,8.40
2019-05-07T19:41:20.453Z,8.32
2019-05-07T19:43:54.179Z,8.24
2019-05-07T19:46:28.558Z,8.18
2019-05-07T19:49:07.126Z,8.11
2019-05-07T19:51:38.699Z,8.05
2019-05-07T19:54:09.957Z,7.97
2019-05-07T19:56:42.609Z,7.90
2019-05-07T19:59:15.319Z,7.83
2019-05-07T20:01:48.190Z,7.76
2019-05-07T20:04:22.297Z,7.66
2019-05-07T20:06:55.269Z,7.57
2019-05-07T20:09:28.166Z,7.49
2019-05-07T20:11:59.456Z,7.40
2019-05-07T20:14:33.098Z,7.33
2019-05-07T20:17:05.669Z,7.27
2019-05-07T20:19:39.248Z,7.20
2019-05-07T20:22:15.233Z,7.13
2019-05-07T20:24:54.256Z,7.06
2019-05-07T20:27:25.643Z,7.02
2019-05-07T20:29:58.507Z,6.95
2019-05-07T20:32:34.463Z,6.90
2019-05-07T20:35:10.576Z,6.85
2019-05-07T20:37:42.098Z,6.79
2019-05-07T20:40:18.015Z,6.73
2019-05-07T20:42:49.488Z,6.68
2019-05-07T20:45:23.858Z,6.64
2019-05-07T20:47:55.240Z,6.59
2019-05-07T20:50:38.402Z,6.55
2019-05-07T20:53:12.895Z,6.51
2019-05-07T20:55:50.518Z,6.44
2019-05-07T20:58:23.261Z,6.40
2019-05-07T21:01:06.463Z,6.33
2019-05-07T21:03:34.501Z,6.29
2019-05-07T21:06:12.979Z,6.23
2019-05-07T21:08:45.741Z,6.19
2019-05-07T21:11:32.228Z,6.11
2019-05-07T21:13:59.291Z,6.07
2019-05-07T21:16:52.426Z,6.02
2019-05-07T21:19:22.149Z,5.94
2019-05-07T21:22:08.100Z,5.89
2019-05-07T21:57:28.142Z,5.39
2019-05-07T22:00:02.151Z,5.35
2019-05-07T22:14:32.777Z,5.12
2019-05-07T22:27:27.746Z,4.97
2019-05-07T22:31:46.721Z,4.95
2019-05-07T22:32:58.859Z,4.93
2019-05-07T22:41:14.404Z,4.85
2019-05-07T22:44:09.112Z,4.83
2019-05-07T22:56:52.973Z,4.66
2019-05-07T23:00:56.774Z,4.61
2019-05-07T23:03:44.456Z,4.57
2019-05-07T23:06:27.244Z,4.55
2019-05-07T23:15:27.782Z,4.46
2019-05-07T23:20:33.500Z,4.42
2019-05-07T23:28:27.274Z,4.35
2019-05-07T23:32:32.936Z,4.35
2019-05-07T23:33:38.254Z,4.32
2019-05-07T23:41:45.945Z,4.22
2019-05-07T23:45:58.964Z,4.22
2019-05-07T23:46:57.945Z,4.20
2019-05-07T23:52:15.508Z,4.13
2019-05-07T23:55:16.203Z,4.10
2019-05-07T23:58:29.507Z,4.06
